Time;durP1;ratioP1;P1;durP2;ratioP2;P2;SDS_P1;SDS_P2;PMS_P1;PMS_P2;Temp;Humidity;BMP_temperature;BMP_pressure;BME280_temperature;BME280_humidity;BME280_pressure;Samples;Min_cycle;Max_cycle;Signal;HPM_P1;HPM_P2
2024/01/23 00:02:22;;;;;;;45.08;6.38;;;8.60;99.90;;;;;;5063736;28;20060;-74
2024/01/23 00:04:48;;;;;;;45.88;6.10;;;8.60;99.90;;;;;;5051424;28;20432;-74
2024/01/23 00:07:13;;;;;;;40.00;5.53;;;8.50;99.90;;;;;;5054575;28;20021;-73
2024/01/23 00:09:39;;;;;;;36.15;5.78;;;8.50;99.90;;;;;;5062490;28;20013;-74
2024/01/23 00:12:07;;;;;;;39.17;5.70;;;8.50;99.90;;;;;;5054737;28;20356;-74
2024/01/23 00:14:33;;;;;;;43.90;5.47;;;8.40;99.90;;;;;;5062385;28;20372;-74
2024/01/23 00:16:59;;;;;;;41.90;5.85;;;8.40;99.90;;;;;;5068275;28;20028;-74
2024/01/23 00:19:24;;;;;;;36.10;5.18;;;8.40;99.90;;;;;;5062854;28;20060;-74
2024/01/23 00:21:50;;;;;;;47.08;5.20;;;8.40;99.90;;;;;;5052507;28;20114;-74
2024/01/23 00:24:15;;;;;;;37.67;5.15;;;8.30;99.90;;;;;;5064165;28;20475;-74
2024/01/23 00:26:41;;;;;;;32.50;4.30;;;8.30;99.90;;;;;;5059089;28;20021;-74
2024/01/23 00:29:07;;;;;;;34.00;5.05;;;8.20;99.90;;;;;;5054955;28;20537;-74
2024/01/23 00:31:34;;;;;;;27.98;4.30;;;8.20;99.90;;;;;;5069860;28;20021;-74
2024/01/23 00:33:59;;;;;;;29.77;4.40;;;8.20;99.90;;;;;;5067912;28;20036;-74
2024/01/23 00:36:25;;;;;;;32.58;4.57;;;8.20;99.90;;;;;;5068763;28;20016;-75
2024/01/23 00:38:51;;;;;;;28.45;4.57;;;8.10;99.90;;;;;;5060868;28;20025;-74
2024/01/23 00:41:16;;;;;;;26.63;4.43;;;8.10;99.90;;;;;;5055961;28;20103;-74
2024/01/23 00:43:42;;;;;;;27.73;4.15;;;8.10;99.90;;;;;;5050847;28;20020;-74
2024/01/23 00:46:08;;;;;;;30.90;4.30;;;8.10;99.90;;;;;;5051762;28;20035;-75
2024/01/23 00:48:33;;;;;;;31.08;4.72;;;8.10;99.90;;;;;;5060789;28;20029;-75
2024/01/23 00:50:59;;;;;;;31.33;4.03;;;8.10;99.90;;;;;;5062872;28;20440;-74
2024/01/23 00:53:24;;;;;;;29.38;4.45;;;8.20;99.90;;;;;;5060242;28;20474;-74
2024/01/23 00:55:50;;;;;;;28.90;4.97;;;8.10;99.90;;;;;;5057109;28;20074;-74
2024/01/23 00:58:16;;;;;;;24.77;3.78;;;8.20;99.90;;;;;;5061251;28;20494;-74
2024/01/23 01:00:44;;;;;;;40.30;5.35;;;8.10;99.90;;;;;;5062443;28;20059;-74
2024/01/23 01:03:10;;;;;;;40.38;4.90;;;8.10;99.90;;;;;;5057594;28;20017;-74
2024/01/23 01:05:36;;;;;;;28.27;5.18;;;8.10;99.90;;;;;;5060214;28;20040;-74
2024/01/23 01:08:01;;;;;;;36.38;5.07;;;8.10;99.90;;;;;;5050182;28;20017;-74
2024/01/23 01:10:27;;;;;;;32.22;4.88;;;8.10;99.90;;;;;;5051686;28;20025;-74
2024/01/23 01:12:53;;;;;;;29.73;4.28;;;8.10;99.90;;;;;;5051277;28;20021;-74
2024/01/23 01:15:19;;;;;;;42.63;4.90;;;8.10;99.90;;;;;;5061954;28;20021;-74
2024/01/23 01:17:44;;;;;;;40.70;4.85;;;8.10;99.90;;;;;;5052839;28;20025;-74
2024/01/23 01:20:10;;;;;;;31.65;5.07;;;8.10;99.90;;;;;;5059637;28;20097;-74
2024/01/23 01:22:38;;;;;;;28.25;4.80;;;8.00;99.90;;;;;;5049301;28;20024;-74
2024/01/23 01:25:04;;;;;;;25.75;4.82;;;8.00;99.90;;;;;;5050686;28;20087;-74
2024/01/23 01:27:29;;;;;;;33.50;4.32;;;8.00;99.90;;;;;;5051555;28;20116;-74
2024/01/23 01:29:55;;;;;;;34.83;4.60;;;8.00;99.90;;;;;;5061354;28;20024;-75
2024/01/23 01:32:21;;;;;;;31.60;4.78;;;8.10;99.90;;;;;;5056450;28;20028;-74
2024/01/23 01:34:46;;;;;;;32.22;4.60;;;8.10;99.90;;;;;;5049688;28;20017;-74
2024/01/23 01:37:12;;;;;;;32.40;5.10;;;8.10;99.90;;;;;;5056035;28;20091;-75
2024/01/23 01:39:37;;;;;;;34.75;4.88;;;8.00;99.90;;;;;;5065040;28;20498;-74
2024/01/23 01:42:03;;;;;;;40.25;4.82;;;8.00;99.90;;;;;;5051306;28;20508;-74
2024/01/23 01:44:32;;;;;;;31.88;5.15;;;8.00;99.90;;;;;;5050446;28;20106;-74
2024/01/23 01:46:59;;;;;;;30.77;4.72;;;8.00;99.90;;;;;;5062601;28;20025;-75
2024/01/23 01:49:25;;;;;;;42.00;5.43;;;8.00;99.90;;;;;;5062446;28;20035;-74
2024/01/23 01:51:51;;;;;;;31.23;5.30;;;8.00;99.90;;;;;;5068007;28;20028;-74
2024/01/23 01:54:19;;;;;;;33.65;4.68;;;8.00;99.90;;;;;;5068523;28;20025;-74
2024/01/23 01:56:45;;;;;;;31.73;4.38;;;8.00;99.90;;;;;;5055458;28;20012;-74
2024/01/23 01:59:11;;;;;;;34.83;5.57;;;8.00;99.90;;;;;;5062855;28;20025;-74
2024/01/23 02:01:37;;;;;;;42.03;4.75;;;8.00;99.90;;;;;;5063916;28;20089;-75
2024/01/23 02:04:03;;;;;;;34.05;5.65;;;8.00;99.90;;;;;;5063063;28;20485;-74
2024/01/23 02:06:30;;;;;;;30.70;4.55;;;7.90;99.90;;;;;;5067863;28;20029;-74
2024/01/23 02:08:56;;;;;;;38.90;5.18;;;7.90;99.90;;;;;;5056340;28;20016;-74
2024/01/23 02:11:22;;;;;;;27.13;4.28;;;7.90;99.90;;;;;;5059550;28;20067;-74
2024/01/23 02:13:48;;;;;;;31.20;4.65;;;7.90;99.90;;;;;;5056143;28;20469;-75
2024/01/23 02:16:13;;;;;;;36.15;4.95;;;7.90;99.90;;;;;;5064374;28;20024;-74
2024/01/23 02:18:39;;;;;;;28.25;4.43;;;7.80;99.90;;;;;;5049260;28;20071;-75
2024/01/23 02:21:06;;;;;;;22.80;4.43;;;7.80;99.90;;;;;;5062091;28;20020;-74
2024/01/23 02:23:32;;;;;;;35.58;4.65;;;7.80;99.90;;;;;;5057789;28;20108;-74
2024/01/23 02:25:57;;;;;;;33.83;4.45;;;7.80;99.90;;;;;;5050803;28;20108;-74
2024/01/23 02:28:23;;;;;;;25.95;4.22;;;7.80;99.90;;;;;;5062637;28;20033;-74
2024/01/23 02:30:49;;;;;;;27.40;4.93;;;7.80;99.90;;;;;;5049329;28;20025;-74
2024/01/23 02:33:14;;;;;;;39.50;4.70;;;7.80;99.90;;;;;;5063428;28;20036;-74
2024/01/23 02:35:40;;;;;;;37.03;4.72;;;7.80;99.90;;;;;;5049532;28;20082;-75
2024/01/23 02:38:08;;;;;;;24.88;3.92;;;7.80;99.90;;;;;;5055292;28;20032;-74
2024/01/23 02:40:34;;;;;;;34.28;5.03;;;7.80;99.90;;;;;;5049757;28;20060;-74
2024/01/23 02:43:00;;;;;;;28.75;4.22;;;7.80;99.90;;;;;;5063581;28;20032;-74
2024/01/23 02:45:25;;;;;;;29.95;4.38;;;7.80;99.90;;;;;;5057933;28;20388;-74
2024/01/23 02:47:51;;;;;;;26.40;4.15;;;7.70;99.90;;;;;;5056000;28;20017;-75
2024/01/23 02:50:17;;;;;;;30.10;4.68;;;7.80;99.90;;;;;;5057278;28;20535;-74
2024/01/23 02:52:43;;;;;;;31.92;3.95;;;7.70;99.90;;;;;;5052226;28;20013;-75
2024/01/23 02:55:09;;;;;;;28.20;4.45;;;7.70;99.90;;;;;;5066801;28;20028;-74
2024/01/23 02:57:34;;;;;;;30.00;4.57;;;7.70;99.90;;;;;;5071832;28;20082;-74
2024/01/23 03:00:00;;;;;;;30.73;4.78;;;7.70;99.90;;;;;;5061613;28;20451;-74
2024/01/23 03:02:26;;;;;;;37.20;5.18;;;7.60;99.90;;;;;;5067403;28;20021;-74
2024/01/23 03:04:51;;;;;;;40.78;5.13;;;7.60;99.90;;;;;;5055275;28;20079;-75
2024/01/23 03:07:19;;;;;;;30.98;4.72;;;7.60;99.90;;;;;;5052920;28;20437;-75
2024/01/23 03:09:44;;;;;;;32.15;4.88;;;7.60;99.90;;;;;;5058735;28;20344;-74
2024/01/23 03:12:18;;;;;;;31.08;4.40;;;7.60;99.90;;;;;;5072682;28;20028;-74
2024/01/23 03:14:44;;;;;;;28.13;3.78;;;7.60;99.90;;;;;;5057446;28;20043;-75
2024/01/23 03:17:11;;;;;;;32.75;4.85;;;7.60;99.90;;;;;;5061604;28;20435;-75
2024/01/23 03:19:36;;;;;;;36.38;5.50;;;7.60;99.90;;;;;;5063359;28;20048;-75
2024/01/23 03:22:03;;;;;;;32.35;4.82;;;7.60;99.90;;;;;;5053084;28;20013;-75
2024/01/23 03:24:29;;;;;;;27.30;4.63;;;7.50;99.90;;;;;;5067312;28;20437;-75
2024/01/23 03:26:55;;;;;;;29.13;4.53;;;7.50;99.90;;;;;;5071781;28;20036;-74
2024/01/23 03:29:21;;;;;;;29.40;4.10;;;7.50;99.90;;;;;;5060194;28;20025;-74
2024/01/23 03:31:46;;;;;;;30.42;4.88;;;7.50;99.90;;;;;;5052941;28;20464;-74
2024/01/23 03:34:12;;;;;;;41.15;5.30;;;7.50;99.90;;;;;;5062411;28;20536;-74
2024/01/23 03:36:38;;;;;;;32.45;4.60;;;7.60;99.90;;;;;;5069134;28;20048;-74
2024/01/23 03:39:03;;;;;;;34.15;4.60;;;7.50;99.90;;;;;;5064161;28;20077;-75
2024/01/23 03:41:29;;;;;;;33.08;4.43;;;7.50;99.90;;;;;;5052018;28;20025;-75
2024/01/23 03:43:55;;;;;;;34.28;4.60;;;7.50;99.90;;;;;;5068278;28;20025;-75
2024/01/23 03:46:21;;;;;;;33.05;4.28;;;7.50;99.90;;;;;;5063959;28;20076;-74
2024/01/23 03:48:46;;;;;;;25.02;4.78;;;7.50;99.90;;;;;;5065043;28;20088;-74
2024/01/23 03:51:12;;;;;;;45.15;4.93;;;7.50;99.90;;;;;;5062621;28;20112;-74
2024/01/23 03:53:38;;;;;;;34.70;4.93;;;7.50;99.90;;;;;;5066824;28;20395;-75
2024/01/23 03:56:03;;;;;;;27.85;4.90;;;7.50;99.90;;;;;;5061742;28;20017;-74
2024/01/23 03:58:29;;;;;;;26.23;4.03;;;7.50;99.90;;;;;;5066348;28;20556;-74
2024/01/23 04:00:57;;;;;;;34.88;4.68;;;7.50;99.90;;;;;;5053073;28;20048;-74
2024/01/23 04:03:23;;;;;;;30.33;4.80;;;7.50;99.90;;;;;;5056313;28;20092;-75
2024/01/23 04:05:48;;;;;;;41.50;5.00;;;7.50;99.90;;;;;;5071823;28;20119;-75
2024/01/23 04:08:14;;;;;;;32.08;5.00;;;7.40;99.90;;;;;;5066011;28;20013;-74
2024/01/23 04:10:40;;;;;;;32.97;4.65;;;7.40;99.90;;;;;;5051479;28;20379;-75
2024/01/23 04:13:05;;;;;;;36.88;4.45;;;7.40;99.90;;;;;;5064501;28;20031;-75
2024/01/23 04:15:31;;;;;;;30.42;4.55;;;7.40;99.90;;;;;;5052112;28;20036;-74
2024/01/23 04:17:57;;;;;;;32.42;4.45;;;7.40;99.90;;;;;;5051092;28;20087;-75
2024/01/23 04:20:22;;;;;;;40.15;4.95;;;7.40;99.90;;;;;;5052582;28;20506;-74
2024/01/23 04:22:48;;;;;;;38.10;5.03;;;7.40;99.90;;;;;;5064626;28;20025;-74
2024/01/23 04:25:14;;;;;;;32.58;4.45;;;7.40;99.90;;;;;;5054132;28;20053;-73
2024/01/23 04:27:40;;;;;;;38.80;5.43;;;7.40;99.90;;;;;;5050921;28;20090;-73
2024/01/23 04:30:06;;;;;;;35.42;4.50;;;7.40;99.90;;;;;;5051728;28;20472;-74
2024/01/23 04:32:32;;;;;;;29.13;4.78;;;7.50;99.90;;;;;;5052671;28;20055;-75
2024/01/23 04:34:57;;;;;;;34.28;5.03;;;7.50;99.90;;;;;;5061784;28;20048;-75
2024/01/23 04:37:23;;;;;;;30.75;4.03;;;7.50;99.90;;;;;;5061375;28;20037;-73
2024/01/23 04:39:49;;;;;;;38.47;4.28;;;7.50;99.90;;;;;;5054618;28;20029;-75
2024/01/23 04:42:14;;;;;;;31.13;4.65;;;7.50;99.90;;;;;;5062026;28;20012;-74
2024/01/23 04:44:40;;;;;;;30.60;4.25;;;7.50;99.90;;;;;;5058989;28;20107;-74
2024/01/23 04:47:05;;;;;;;33.28;4.80;;;7.50;99.90;;;;;;5056548;28;20134;-75
2024/01/23 04:49:31;;;;;;;38.92;4.75;;;7.50;99.90;;;;;;5064520;28;20369;-75
2024/01/23 04:51:57;;;;;;;24.90;4.15;;;7.50;99.90;;;;;;5059579;28;20013;-74
2024/01/23 04:54:23;;;;;;;30.17;3.85;;;7.50;99.90;;;;;;5051931;28;20036;-74
2024/01/23 04:56:49;;;;;;;31.50;4.35;;;7.40;99.90;;;;;;5068009;28;20028;-74
2024/01/23 04:59:14;;;;;;;38.15;4.80;;;7.40;99.90;;;;;;5059720;28;20021;-74
2024/01/23 05:01:40;;;;;;;38.63;5.32;;;7.40;99.90;;;;;;5050891;28;20085;-75
2024/01/23 05:04:06;;;;;;;29.15;5.13;;;7.50;99.90;;;;;;5050537;28;20033;-74
2024/01/23 05:06:31;;;;;;;38.13;4.60;;;7.50;99.90;;;;;;5065623;28;20020;-75
2024/01/23 05:08:57;;;;;;;31.65;4.75;;;7.40;99.90;;;;;;5058998;28;20025;-75
2024/01/23 05:11:23;;;;;;;36.42;5.43;;;7.40;99.90;;;;;;5067031;28;20372;-75
2024/01/23 05:13:48;;;;;;;36.47;4.75;;;7.40;99.90;;;;;;5067644;28;20073;-75
2024/01/23 05:16:14;;;;;;;36.50;4.93;;;7.40;99.90;;;;;;5054054;28;20028;-75
2024/01/23 05:18:40;;;;;;;32.83;4.95;;;7.40;99.90;;;;;;5053340;28;20048;-75
2024/01/23 05:21:05;;;;;;;35.92;5.38;;;7.40;99.90;;;;;;5057077;28;20478;-75
2024/01/23 05:23:31;;;;;;;29.67;4.53;;;7.40;99.90;;;;;;5063232;28;20083;-75
2024/01/23 05:25:57;;;;;;;30.65;5.25;;;7.40;99.90;;;;;;5057628;28;20031;-75
2024/01/23 05:28:22;;;;;;;35.40;5.57;;;7.40;99.90;;;;;;5064507;28;20067;-75
2024/01/23 05:30:48;;;;;;;34.97;5.43;;;7.40;99.90;;;;;;5054049;28;20028;-75
2024/01/23 05:33:13;;;;;;;32.47;4.53;;;7.40;99.90;;;;;;5050285;28;20538;-75
2024/01/23 05:35:39;;;;;;;37.13;5.32;;;7.40;99.90;;;;;;5057215;28;20082;-75
2024/01/23 05:38:04;;;;;;;34.53;5.30;;;7.40;99.90;;;;;;5052409;28;20024;-75
2024/01/23 05:40:30;;;;;;;37.58;4.95;;;7.40;99.90;;;;;;5053557;28;20092;-75
2024/01/23 05:42:55;;;;;;;42.50;5.00;;;7.40;99.90;;;;;;5054727;28;20021;-75
2024/01/23 05:45:21;;;;;;;34.95;4.57;;;7.40;99.90;;;;;;5052001;28;20083;-75
2024/01/23 05:47:47;;;;;;;36.92;4.45;;;7.40;99.90;;;;;;5062920;28;20020;-75
2024/01/23 05:50:12;;;;;;;36.70;5.07;;;7.30;99.90;;;;;;5052596;28;20062;-75
2024/01/23 05:52:38;;;;;;;33.08;5.05;;;7.30;99.90;;;;;;5060733;28;20025;-74
2024/01/23 05:55:04;;;;;;;39.42;4.38;;;7.30;99.90;;;;;;5058457;28;20059;-75
2024/01/23 05:57:29;;;;;;;37.80;5.82;;;7.30;99.90;;;;;;5052388;28;20029;-75
2024/01/23 05:59:56;;;;;;;36.63;4.70;;;7.30;99.90;;;;;;5049913;28;20036;-74
2024/01/23 06:02:21;;;;;;;39.20;5.15;;;7.30;99.90;;;;;;5053278;28;20536;-75
2024/01/23 06:04:47;;;;;;;36.97;4.78;;;7.30;99.90;;;;;;5049439;28;20033;-75
2024/01/23 06:07:13;;;;;;;34.03;4.70;;;7.30;99.90;;;;;;5059223;28;20104;-75
2024/01/23 06:09:38;;;;;;;35.65;5.15;;;7.20;99.90;;;;;;5054414;28;20024;-74
2024/01/23 06:12:04;;;;;;;37.78;5.20;;;7.20;99.90;;;;;;5053633;28;20028;-75
2024/01/23 06:14:30;;;;;;;31.92;4.55;;;7.20;99.90;;;;;;5050011;28;20033;-75
2024/01/23 06:16:56;;;;;;;33.72;4.47;;;7.20;99.90;;;;;;5054365;28;20074;-75
2024/01/23 06:19:22;;;;;;;35.08;5.40;;;7.20;99.90;;;;;;5055407;28;20511;-75
2024/01/23 06:21:48;;;;;;;40.60;6.30;;;7.20;99.90;;;;;;5059052;28;20111;-74
2024/01/23 06:24:14;;;;;;;33.63;5.05;;;7.10;99.90;;;;;;5051914;28;20121;-75
2024/01/23 06:26:39;;;;;;;44.45;5.50;;;7.10;99.90;;;;;;5051300;28;21219;-74
2024/01/23 06:29:05;;;;;;;29.80;4.57;;;7.10;99.90;;;;;;5063450;28;20029;-75
2024/01/23 06:31:30;;;;;;;37.55;5.22;;;7.10;99.90;;;;;;5059252;28;20032;-74
2024/01/23 06:33:56;;;;;;;33.65;4.95;;;7.10;99.90;;;;;;5060233;28;20017;-75
2024/01/23 06:36:22;;;;;;;32.05;4.45;;;7.10;99.90;;;;;;5063640;28;20025;-75
2024/01/23 06:38:48;;;;;;;37.38;5.38;;;7.10;99.90;;;;;;5057698;28;20115;-75
2024/01/23 06:41:14;;;;;;;39.00;5.53;;;7.10;99.90;;;;;;5056163;28;20028;-75
2024/01/23 06:43:40;;;;;;;34.50;5.45;;;7.10;99.90;;;;;;5069634;28;20372;-75
2024/01/23 06:46:05;;;;;;;35.67;4.82;;;7.10;99.90;;;;;;5059948;28;20067;-75
2024/01/23 06:48:31;;;;;;;30.73;5.30;;;7.00;99.90;;;;;;5061611;28;20021;-75
2024/01/23 06:50:57;;;;;;;38.45;5.53;;;7.00;99.90;;;;;;5056427;28;20029;-74
2024/01/23 06:53:22;;;;;;;35.85;5.00;;;7.00;99.90;;;;;;5051884;28;20126;-75
2024/01/23 06:55:48;;;;;;;37.85;4.82;;;7.00;99.90;;;;;;5056845;28;20040;-76
2024/01/23 06:58:14;;;;;;;36.85;4.68;;;7.00;99.90;;;;;;5056189;28;20100;-75
2024/01/23 07:00:40;;;;;;;41.15;5.43;;;7.00;99.90;;;;;;5063163;28;20488;-75
2024/01/23 07:03:06;;;;;;;38.80;5.28;;;7.00;99.90;;;;;;5050980;28;20508;-75
2024/01/23 07:05:32;;;;;;;43.08;5.75;;;6.90;99.90;;;;;;5050926;28;20377;-75
2024/01/23 07:07:57;;;;;;;38.13;5.35;;;6.90;99.90;;;;;;5059317;28;20023;-75
2024/01/23 07:10:23;;;;;;;35.28;4.85;;;6.90;99.90;;;;;;5060981;28;20028;-75
2024/01/23 07:12:49;;;;;;;41.95;5.70;;;6.90;99.90;;;;;;5052157;28;20420;-75
2024/01/23 07:15:14;;;;;;;36.15;5.22;;;6.90;99.90;;;;;;5052969;28;20067;-75
2024/01/23 07:17:40;;;;;;;38.55;5.38;;;6.90;99.90;;;;;;5055503;28;20033;-75
2024/01/23 07:20:09;;;;;;;40.65;5.22;;;6.90;99.90;;;;;;5056972;28;20486;-75
2024/01/23 07:22:34;;;;;;;35.70;4.93;;;6.90;99.90;;;;;;5061035;28;20021;-75
2024/01/23 07:25:04;;;;;;;36.88;5.40;;;6.90;99.90;;;;;;5067352;28;20040;-74
2024/01/23 07:27:30;;;;;;;45.53;5.78;;;6.80;99.90;;;;;;5060408;28;20051;-75
2024/01/23 07:29:56;;;;;;;40.65;5.65;;;6.80;99.90;;;;;;5062133;28;20028;-75
2024/01/23 07:32:21;;;;;;;41.70;6.05;;;6.80;99.90;;;;;;5068356;28;20058;-75
2024/01/23 07:34:47;;;;;;;47.05;5.85;;;6.80;99.90;;;;;;5062353;28;20052;-75
2024/01/23 07:37:13;;;;;;;40.78;5.50;;;6.80;99.90;;;;;;5052072;28;20372;-75
2024/01/23 07:39:39;;;;;;;39.50;5.13;;;6.80;99.90;;;;;;5064081;28;20436;-75
2024/01/23 07:42:05;;;;;;;47.65;5.60;;;6.80;99.90;;;;;;5062960;28;20074;-75
2024/01/23 07:44:33;;;;;;;36.20;5.13;;;6.70;99.90;;;;;;5052450;28;20025;-75
2024/01/23 07:46:59;;;;;;;40.15;5.60;;;6.70;99.90;;;;;;5055613;28;20013;-75
2024/01/23 07:49:24;;;;;;;37.15;5.78;;;6.70;99.90;;;;;;5054974;28;20029;-75
2024/01/23 07:51:51;;;;;;;34.33;4.97;;;6.70;99.90;;;;;;5055807;28;20114;-75
2024/01/23 07:54:17;;;;;;;44.90;5.82;;;6.70;99.90;;;;;;5051315;28;20021;-75
2024/01/23 07:56:42;;;;;;;37.97;5.15;;;6.60;99.90;;;;;;5050943;28;20047;-74
2024/01/23 07:59:08;;;;;;;40.85;5.88;;;6.60;99.90;;;;;;5052363;28;20135;-75
2024/01/23 08:01:34;;;;;;;41.55;5.40;;;6.60;99.90;;;;;;5059778;28;20029;-75
2024/01/23 08:03:59;;;;;;;38.85;5.75;;;6.60;99.90;;;;;;5052095;28;20013;-75
2024/01/23 08:06:25;;;;;;;40.90;6.05;;;6.50;99.90;;;;;;5064683;28;20063;-75
2024/01/23 08:08:51;;;;;;;35.75;5.25;;;6.50;99.90;;;;;;5070398;28;20031;-75
2024/01/23 08:11:18;;;;;;;44.72;5.82;;;6.40;99.90;;;;;;5055047;28;20475;-74
2024/01/23 08:13:43;;;;;;;35.13;5.35;;;6.40;99.90;;;;;;5056002;28;20013;-75
2024/01/23 08:16:09;;;;;;;31.38;5.03;;;6.30;99.90;;;;;;5055742;28;20028;-75
2024/01/23 08:18:36;;;;;;;42.20;4.95;;;6.30;99.90;;;;;;5052241;28;20075;-75
2024/01/23 08:21:02;;;;;;;35.53;5.22;;;6.20;99.90;;;;;;5053076;28;20054;-75
2024/01/23 08:23:28;;;;;;;40.28;5.45;;;6.20;99.90;;;;;;5054415;28;20024;-75
2024/01/23 08:25:54;;;;;;;42.85;5.65;;;6.10;99.90;;;;;;5059882;28;20039;-75
2024/01/23 08:28:19;;;;;;;39.60;6.25;;;6.10;99.90;;;;;;5064334;28;20032;-74
2024/01/23 08:30:45;;;;;;;48.33;6.60;;;6.10;99.90;;;;;;5053505;28;20052;-74
2024/01/23 08:33:17;;;;;;;39.45;5.45;;;6.10;99.90;;;;;;5055329;28;20070;-74
2024/01/23 08:35:43;;;;;;;40.15;5.95;;;6.10;99.90;;;;;;5059652;28;20029;-74
2024/01/23 08:38:09;;;;;;;38.88;5.95;;;6.10;99.90;;;;;;5058267;28;20032;-74
2024/01/23 08:40:35;;;;;;;47.55;5.93;;;6.20;99.90;;;;;;5051809;28;20017;-75
2024/01/23 08:43:01;;;;;;;50.20;6.10;;;6.20;99.90;;;;;;5052570;28;20037;-75
2024/01/23 08:45:27;;;;;;;48.00;6.45;;;6.20;99.90;;;;;;5058106;28;20028;-75
2024/01/23 08:47:53;;;;;;;57.25;6.70;;;6.20;99.90;;;;;;5058415;28;20020;-74
2024/01/23 08:50:18;;;;;;;42.33;6.10;;;6.30;99.90;;;;;;5056525;28;20128;-74
2024/01/23 08:52:45;;;;;;;54.40;6.78;;;6.20;99.90;;;;;;5056238;28;20012;-74
2024/01/23 08:55:11;;;;;;;35.95;6.03;;;6.30;99.90;;;;;;5058745;28;20025;-74
2024/01/23 08:57:36;;;;;;;60.78;6.72;;;6.40;99.90;;;;;;5055533;28;20025;-74
2024/01/23 09:00:04;;;;;;;55.95;6.63;;;6.40;99.90;;;;;;5064097;28;20019;-74
2024/01/23 09:02:30;;;;;;;39.05;6.22;;;6.40;99.90;;;;;;5068658;28;20032;-74
2024/01/23 09:04:55;;;;;;;47.45;5.90;;;6.40;99.90;;;;;;5063049;28;20037;-74
2024/01/23 09:07:22;;;;;;;45.70;5.28;;;6.50;99.90;;;;;;5052612;28;20021;-74
2024/01/23 09:09:48;;;;;;;38.35;6.00;;;6.60;99.90;;;;;;5066252;28;20009;-74
2024/01/23 09:12:16;;;;;;;46.03;6.03;;;6.60;99.90;;;;;;5055448;28;20060;-74
2024/01/23 09:14:42;;;;;;;36.40;5.72;;;6.60;99.90;;;;;;5056611;28;20025;-74
2024/01/23 09:17:08;;;;;;;41.85;5.50;;;6.60;99.90;;;;;;5058914;28;20519;-74
2024/01/23 09:19:33;;;;;;;43.42;6.10;;;6.70;99.90;;;;;;5059001;28;20135;-74
2024/01/23 09:21:59;;;;;;;44.72;5.53;;;6.70;99.90;;;;;;5057640;28;20017;-74
2024/01/23 09:24:25;;;;;;;41.63;5.80;;;6.80;99.90;;;;;;5061161;28;20064;-75
2024/01/23 09:26:51;;;;;;;32.10;4.75;;;6.80;99.90;;;;;;5051722;28;20068;-74
2024/01/23 09:29:17;;;;;;;50.58;6.10;;;6.90;99.90;;;;;;5054810;28;20378;-74
2024/01/23 09:31:46;;;;;;;40.47;5.90;;;6.90;99.90;;;;;;5060176;28;20027;-74
2024/01/23 09:34:12;;;;;;;45.85;5.85;;;7.00;99.90;;;;;;5059913;28;20020;-74
2024/01/23 09:36:38;;;;;;;37.22;5.88;;;7.00;99.90;;;;;;5054794;28;20431;-74
2024/01/23 09:39:04;;;;;;;40.53;5.03;;;7.10;99.90;;;;;;5060723;28;20061;-74
2024/01/23 09:41:35;;;;;;;38.67;5.07;;;7.20;99.90;;;;;;5053260;28;20036;-74
2024/01/23 09:44:01;;;;;;;35.42;5.63;;;7.20;99.90;;;;;;5064364;28;20036;-75
2024/01/23 09:46:27;;;;;;;47.33;5.18;;;7.20;99.90;;;;;;5061399;28;20032;-75
2024/01/23 09:48:53;;;;;;;36.28;5.05;;;7.30;99.90;;;;;;5062687;28;20089;-74
2024/01/23 09:51:21;;;;;;;37.40;5.28;;;7.40;99.90;;;;;;5059898;28;20027;-74
2024/01/23 09:53:48;;;;;;;39.38;5.30;;;7.40;99.90;;;;;;5068191;28;20093;-74
2024/01/23 09:56:15;;;;;;;38.60;5.40;;;7.40;99.90;;;;;;5058173;28;20017;-74
2024/01/23 09:58:40;;;;;;;36.13;5.97;;;7.50;99.90;;;;;;5050212;28;20036;-75
2024/01/23 10:01:06;;;;;;;38.08;5.15;;;7.50;99.90;;;;;;5060296;28;20032;-74
2024/01/23 10:03:34;;;;;;;39.95;5.68;;;7.50;99.90;;;;;;5057746;28;20028;-75
2024/01/23 10:06:00;;;;;;;31.38;5.72;;;7.50;99.90;;;;;;5059206;28;20123;-74
2024/01/23 10:08:26;;;;;;;45.22;5.10;;;7.60;99.90;;;;;;5049275;28;20365;-74
2024/01/23 10:11:01;;;;;;;36.60;5.57;;;7.60;99.90;;;;;;5058817;28;20024;-74
2024/01/23 10:13:28;;;;;;;40.67;5.47;;;7.70;99.90;;;;;;5057675;28;20020;-74
2024/01/23 10:15:54;;;;;;;27.15;4.70;;;7.70;99.90;;;;;;5067985;28;20039;-74
2024/01/23 10:18:21;;;;;;;38.17;5.13;;;7.80;99.90;;;;;;5055960;28;20052;-75
2024/01/23 10:20:47;;;;;;;34.97;5.07;;;7.80;99.90;;;;;;5069211;28;20114;-74
2024/01/23 10:23:13;;;;;;;44.17;5.22;;;7.90;99.90;;;;;;5062768;28;20059;-74
2024/01/23 10:25:39;;;;;;;38.95;5.50;;;7.90;99.90;;;;;;5064361;28;20032;-74
2024/01/23 10:28:09;;;;;;;34.75;5.22;;;7.90;99.90;;;;;;5055468;28;20043;-75
2024/01/23 10:30:38;;;;;;;36.30;5.35;;;8.00;99.90;;;;;;5049526;28;20492;-74
2024/01/23 10:33:05;;;;;;;37.03;5.28;;;8.00;99.90;;;;;;5052357;28;20099;-74
2024/01/23 10:35:34;;;;;;;33.88;4.88;;;8.00;99.90;;;;;;5058269;28;20044;-74
2024/01/23 10:38:05;;;;;;;38.78;4.97;;;8.00;99.90;;;;;;5055478;28;20052;-73
2024/01/23 10:40:31;;;;;;;36.63;5.20;;;8.10;99.90;;;;;;5055280;28;20039;-74
2024/01/23 10:42:57;;;;;;;43.03;5.20;;;8.20;99.90;;;;;;5056886;28;20439;-74
2024/01/23 10:45:23;;;;;;;35.35;4.93;;;8.20;99.90;;;;;;5057470;28;20045;-74
2024/01/23 10:47:49;;;;;;;35.55;4.85;;;8.30;99.90;;;;;;5056572;28;20024;-73
2024/01/23 10:50:15;;;;;;;36.95;4.82;;;8.30;99.90;;;;;;5068104;28;20472;-74
2024/01/23 10:52:46;;;;;;;39.90;5.45;;;8.30;99.90;;;;;;5069117;28;20031;-74
2024/01/23 10:55:13;;;;;;;41.88;5.57;;;8.30;99.90;;;;;;5061742;28;20435;-74
2024/01/23 10:57:39;;;;;;;41.63;4.75;;;8.20;99.90;;;;;;5055769;28;20129;-74
2024/01/23 11:00:12;;;;;;;36.25;5.18;;;8.30;99.90;;;;;;5069129;28;20025;-74
2024/01/23 11:02:45;;;;;;;41.75;5.30;;;8.30;99.90;;;;;;5060773;28;20032;-75
2024/01/23 11:05:11;;;;;;;37.88;5.28;;;8.30;99.90;;;;;;5056381;28;20032;-75
2024/01/23 11:07:56;;;;;;;37.58;5.22;;;8.20;99.90;;;;;;5052256;28;20440;-75
2024/01/23 11:10:31;;;;;;;36.65;5.78;;;8.20;99.90;;;;;;5061160;28;20025;-74
2024/01/23 11:13:07;;;;;;;41.15;5.88;;;8.20;99.90;;;;;;5050439;28;20470;-75
2024/01/23 11:15:33;;;;;;;37.83;5.35;;;8.20;99.90;;;;;;5065876;28;20044;-75
2024/01/23 11:18:26;;;;;;;42.65;5.88;;;8.30;99.90;;;;;;5059462;28;20013;-74
2024/01/23 11:21:04;;;;;;;35.20;6.00;;;8.30;99.90;;;;;;5054170;28;20040;-75
2024/01/23 11:23:33;;;;;;;33.83;5.38;;;8.30;99.90;;;;;;5052710;28;20052;-74
2024/01/23 11:26:14;;;;;;;39.38;5.32;;;8.30;99.90;;;;;;5055076;28;20021;-74
2024/01/23 11:28:45;;;;;;;33.78;5.28;;;8.30;99.90;;;;;;5052166;28;20036;-75
2024/01/23 11:31:23;;;;;;;35.97;6.03;;;8.40;99.90;;;;;;5063336;28;20077;-74
2024/01/23 11:33:53;;;;;;;34.40;5.10;;;8.50;99.90;;;;;;5053078;28;20028;-74
2024/01/23 11:36:27;;;;;;;34.33;5.30;;;8.50;99.90;;;;;;5051214;28;20120;-75
2024/01/23 11:38:56;;;;;;;30.00;4.80;;;8.60;99.90;;;;;;5060864;28;20065;-74
2024/01/23 11:41:24;;;;;;;39.42;5.10;;;8.60;99.90;;;;;;5060628;28;20028;-74
2024/01/23 11:43:53;;;;;;;41.03;5.68;;;8.60;99.90;;;;;;5055800;28;20033;-74
2024/01/23 11:46:24;;;;;;;39.05;6.13;;;8.70;99.90;;;;;;5058255;28;20017;-74
2024/01/23 11:48:51;;;;;;;36.45;5.60;;;8.70;99.90;;;;;;5059130;28;20032;-73
2024/01/23 11:51:17;;;;;;;40.85;5.53;;;8.70;99.90;;;;;;5061105;28;20039;-74
2024/01/23 11:53:45;;;;;;;41.22;5.72;;;8.70;99.90;;;;;;5057473;28;20035;-74
2024/01/23 11:56:12;;;;;;;36.45;5.40;;;8.70;99.90;;;;;;5061549;28;20027;-73
2024/01/23 11:58:38;;;;;;;35.97;4.63;;;8.70;99.90;;;;;;5057459;28;20357;-74
2024/01/23 12:01:08;;;;;;;36.30;5.18;;;8.70;99.90;;;;;;5073036;28;20024;-74
2024/01/23 12:03:35;;;;;;;32.33;5.75;;;8.70;99.90;;;;;;5074093;28;20078;-74
2024/01/23 12:06:02;;;;;;;29.33;5.22;;;8.70;99.90;;;;;;5072207;28;20032;-74
2024/01/23 12:08:28;;;;;;;37.10;5.03;;;8.70;99.90;;;;;;5064646;28;20106;-74
2024/01/23 12:10:55;;;;;;;37.47;5.35;;;8.70;99.90;;;;;;5068871;28;20637;-74
2024/01/23 12:13:24;;;;;;;34.53;5.20;;;8.70;99.90;;;;;;5057578;28;20375;-74
2024/01/23 12:15:50;;;;;;;35.33;5.65;;;8.70;99.90;;;;;;5051054;28;21182;-75
2024/01/23 12:18:24;;;;;;;38.10;5.60;;;8.70;99.90;;;;;;5055755;28;20055;-74
2024/01/23 12:20:50;;;;;;;39.03;5.93;;;8.70;99.90;;;;;;5051147;28;20108;-74
2024/01/23 12:23:19;;;;;;;52.80;6.35;;;8.70;99.90;;;;;;5064255;28;20384;-75
2024/01/23 12:25:46;;;;;;;37.22;5.82;;;8.70;99.90;;;;;;5048608;28;20071;-74
2024/01/23 12:28:12;;;;;;;36.22;5.57;;;8.70;99.90;;;;;;5063320;28;20035;-74
2024/01/23 12:30:39;;;;;;;34.60;5.47;;;8.80;99.90;;;;;;5059547;28;20047;-75
2024/01/23 12:33:05;;;;;;;43.30;5.15;;;8.80;99.90;;;;;;5059992;28;20029;-75
2024/01/23 12:35:31;;;;;;;47.40;6.97;;;8.80;99.90;;;;;;5063776;28;20562;-75
2024/01/23 12:37:56;;;;;;;36.47;6.40;;;8.90;99.90;;;;;;5064104;28;20044;-75
2024/01/23 12:40:22;;;;;;;38.08;6.03;;;8.90;99.90;;;;;;5052917;28;20449;-74
2024/01/23 12:42:48;;;;;;;47.17;6.95;;;8.90;99.90;;;;;;5051479;28;20016;-75
2024/01/23 12:45:17;;;;;;;44.40;6.22;;;8.90;99.90;;;;;;5052479;28;20136;-75